e-Mail: Password: Lost your password? Click here. - Register a new user

c h a v e z j u a r e z . c o m

Weather - Tiempo - Wetter - Temps

METAR DATA MMMX (Mexico City)

Mexico City / Licenci, Mexico (MMMX) 19-26N 099-06W
Apr 03, 2020 - 06:42 AM EDT / 2020.04.03 1042 UTC
Wind: from the E (080 degrees) at 3 MPH (3 KT):0
Visibility: 12 mile(s):0
Sky conditions: clear
Temperature: 55 F (13 C)
Dew Point: 48 F (9 C)
Relative Humidity: 76%
Pressure (altimeter): 30.22 in. Hg (1023 hPa)
ob: MMMX 031042Z 08003KT 12SM SKC 13/09 A3022 NOSIG RMK CI
cycle: 10

Mexico City

St. Prex




Current weather alarms for Switzerland


www.wetteralarm.ch